createdAt,value
2023-01-08T00:03:48.855Z,14.20
2023-01-08T00:08:52.083Z,14.20
2023-01-08T00:13:57.516Z,14.10
2023-01-08T00:19:00.713Z,14.10
2023-01-08T00:24:03.638Z,14.10
2023-01-08T00:29:08.200Z,14.10
2023-01-08T00:34:11.313Z,14.00
2023-01-08T00:39:14.220Z,14.00
2023-01-08T00:44:18.471Z,14.00
2023-01-08T00:49:21.387Z,14.00
2023-01-08T00:54:24.334Z,14.10
2023-01-08T00:59:32.695Z,14.00
2023-01-08T01:04:35.747Z,14.10
2023-01-08T01:09:39.033Z,14.00
2023-01-08T01:14:43.512Z,14.00
2023-01-08T01:19:46.712Z,14.10
2023-01-08T01:24:49.629Z,14.00
2023-01-08T01:29:54.083Z,14.00
2023-01-08T01:34:56.994Z,14.10
2023-01-08T01:39:59.999Z,14.10
2023-01-08T01:45:08.076Z,14.00
2023-01-08T01:50:15.533Z,14.00
2023-01-08T01:55:19.208Z,14.10
2023-01-08T02:00:24.224Z,14.00
2023-01-08T02:05:33.788Z,14.10
2023-01-08T02:10:43.539Z,14.20
2023-01-08T02:15:52.802Z,14.10
2023-01-08T02:21:00.115Z,14.10
2023-01-08T02:26:29.093Z,14.10
2023-01-08T02:31:34.340Z,14.10
2023-01-08T02:36:40.260Z,14.00
2023-01-08T02:42:05.751Z,14.10
2023-01-08T02:47:13.358Z,14.00
2023-01-08T02:52:18.552Z,14.10
2023-01-08T02:57:22.979Z,14.10
2023-01-08T03:02:44.623Z,14.10
2023-01-08T03:07:47.736Z,14.10
2023-01-08T03:12:56.504Z,14.10
2023-01-08T03:18:05.118Z,14.00
2023-01-08T03:23:11.067Z,13.90
2023-01-08T03:28:22.351Z,14.00
2023-01-08T03:33:26.797Z,14.00
2023-01-08T03:38:33.969Z,14.00
2023-01-08T03:43:38.477Z,14.00
2023-01-08T03:48:42.665Z,14.00
2023-01-08T03:53:47.244Z,13.90
2023-01-08T03:58:51.489Z,13.80
2023-01-08T04:03:54.458Z,13.60
2023-01-08T04:08:57.420Z,13.50
2023-01-08T04:14:01.845Z,13.50
2023-01-08T04:19:04.887Z,13.40
2023-01-08T04:24:08.137Z,13.20
2023-01-08T04:29:12.565Z,13.20
2023-01-08T04:34:27.845Z,13.10
2023-01-08T04:39:30.820Z,13.10
2023-01-08T04:44:35.098Z,12.90
2023-01-08T04:49:38.115Z,12.90
2023-01-08T04:54:41.024Z,12.80
2023-01-08T04:59:45.364Z,12.60
2023-01-08T05:04:49.204Z,12.60
2023-01-08T05:09:52.211Z,12.60
2023-01-08T05:14:56.568Z,12.60
2023-01-08T05:19:59.505Z,12.50
2023-01-08T05:25:02.420Z,12.30
2023-01-08T05:30:08.358Z,12.50
2023-01-08T05:35:11.311Z,12.30
2023-01-08T05:40:14.384Z,12.30
2023-01-08T05:45:19.043Z,12.30
2023-01-08T05:50:22.086Z,12.30
2023-01-08T05:55:25.021Z,12.30
2023-01-08T06:00:29.362Z,12.20
2023-01-08T06:05:33.172Z,12.20
2023-01-08T06:10:36.099Z,12.30
2023-01-08T06:15:40.993Z,12.20
2023-01-08T06:20:43.990Z,12.20
2023-01-08T06:26:04.049Z,12.30
2023-01-08T06:31:08.382Z,12.30
2023-01-08T06:36:11.711Z,12.30
2023-01-08T06:41:14.623Z,12.20
2023-01-08T06:46:19.045Z,12.20
2023-01-08T06:51:22.041Z,12.20
2023-01-08T06:56:24.938Z,12.20
2023-01-08T07:01:29.274Z,12.10
2023-01-08T07:06:32.235Z,12.20
2023-01-08T07:11:35.685Z,12.20
2023-01-08T07:16:39.890Z,12.20
2023-01-08T07:21:42.781Z,12.20
2023-01-08T07:26:45.675Z,12.10
2023-01-08T07:31:50.033Z,12.00
2023-01-08T07:36:52.920Z,12.00
2023-01-08T07:41:55.965Z,12.00
2023-01-08T07:47:00.398Z,12.10
2023-01-08T07:52:03.319Z,12.00
2023-01-08T07:57:06.228Z,12.00
2023-01-08T08:02:11.613Z,12.10
2023-01-08T08:07:14.642Z,12.10
2023-01-08T08:12:17.527Z,12.00
2023-01-08T08:17:21.801Z,12.00
2023-01-08T08:22:24.699Z,12.00
2023-01-08T08:27:27.645Z,12.00
2023-01-08T08:32:31.874Z,12.00
2023-01-08T08:37:35.306Z,12.10
2023-01-08T08:42:38.297Z,12.10
2023-01-08T08:47:42.545Z,12.10
2023-01-08T08:52:46.000Z,12.00
2023-01-08T08:57:49.436Z,12.10
2023-01-08T09:02:53.810Z,12.10
2023-01-08T09:07:57.039Z,12.20
2023-01-08T09:12:59.953Z,12.20
2023-01-08T09:18:04.549Z,12.20
2023-01-08T09:23:07.943Z,12.10
2023-01-08T09:28:13.245Z,12.00
2023-01-08T09:33:18.057Z,12.10
2023-01-08T09:38:20.928Z,12.10
2023-01-08T09:43:27.337Z,12.20
2023-01-08T09:48:35.401Z,12.20
2023-01-08T09:53:38.358Z,12.20
2023-01-08T09:58:45.067Z,12.30
2023-01-08T10:03:52.621Z,12.20
2023-01-08T10:08:55.554Z,12.20
2023-01-08T10:13:58.907Z,12.30
2023-01-08T10:19:04.599Z,12.30
2023-01-08T10:24:08.338Z,12.30
2023-01-08T10:29:14.583Z,12.20
2023-01-08T10:34:32.397Z,12.30
2023-01-08T10:39:36.747Z,12.30
2023-01-08T10:44:39.631Z,12.30
2023-01-08T10:49:46.389Z,12.30
2023-01-08T10:54:49.265Z,12.40
2023-01-08T10:59:52.186Z,12.50
2023-01-08T11:04:56.825Z,12.50
2023-01-08T11:10:00.708Z,12.60
2023-01-08T11:15:05.439Z,12.60
2023-01-08T11:20:22.645Z,12.60
2023-01-08T11:25:29.827Z,12.70
2023-01-08T11:30:37.295Z,12.60
2023-01-08T11:35:49.692Z,12.70
2023-01-08T11:41:19.497Z,12.70
2023-01-08T11:46:41.186Z,12.70
2023-01-08T11:52:05.403Z,12.70
2023-01-08T12:04:03.801Z,12.80
2023-01-08T12:10:07.112Z,12.80
2023-01-08T12:15:49.015Z,12.70
2023-01-08T12:22:08.451Z,12.50
2023-01-08T12:47:31.938Z,12.60
2023-01-08T12:59:12.239Z,12.70
2023-01-08T13:04:17.381Z,12.80
2023-01-08T13:09:28.707Z,12.90
2023-01-08T13:14:42.811Z,12.80
2023-01-08T13:19:53.948Z,12.80
2023-01-08T13:25:29.636Z,12.70
2023-01-08T13:30:44.131Z,12.80
2023-01-08T13:35:59.685Z,12.80
2023-01-08T13:47:45.165Z,12.90
2023-01-08T13:53:04.957Z,12.90
2023-01-08T13:58:24.841Z,12.90
2023-01-08T14:03:35.680Z,12.90
2023-01-08T14:08:51.030Z,12.90
2023-01-08T14:13:54.387Z,13.00
2023-01-08T14:19:02.089Z,12.90
2023-01-08T14:24:17.431Z,13.00
2023-01-08T14:29:23.084Z,13.00
2023-01-08T14:34:28.199Z,13.00
2023-01-08T14:39:38.421Z,12.90
2023-01-08T14:44:44.373Z,12.90
2023-01-08T14:49:53.225Z,13.00
2023-01-08T14:55:00.575Z,12.90
2023-01-08T15:00:04.062Z,12.90
2023-01-08T15:05:18.344Z,12.80
2023-01-08T15:10:40.722Z,12.80
2023-01-08T15:15:56.301Z,12.80
2023-01-08T15:20:59.379Z,12.90
2023-01-08T15:26:03.885Z,12.90
2023-01-08T15:31:24.150Z,12.80
2023-01-08T15:36:40.271Z,12.70
2023-01-08T15:42:02.027Z,12.70
2023-01-08T15:47:04.948Z,12.70
2023-01-08T15:52:11.089Z,12.70
2023-01-08T15:57:16.519Z,12.80
2023-01-08T16:02:19.602Z,12.80
2023-01-08T16:07:23.281Z,12.80
2023-01-08T16:12:27.566Z,12.80
2023-01-08T16:17:31.720Z,12.60
2023-01-08T16:22:35.506Z,12.70
2023-01-08T16:27:51.125Z,12.60
2023-01-08T16:32:54.837Z,12.60
2023-01-08T16:38:15.025Z,12.50
2023-01-08T16:43:20.083Z,12.60
2023-01-08T16:48:27.605Z,12.50
2023-01-08T16:53:30.509Z,12.50
2023-01-08T16:58:35.930Z,12.50
2023-01-08T17:03:39.475Z,12.50
2023-01-08T17:08:43.310Z,12.50
2023-01-08T17:13:47.909Z,12.50
2023-01-08T17:18:50.969Z,12.50
2023-01-08T17:23:53.996Z,12.40
2023-01-08T17:28:58.394Z,12.60
2023-01-08T17:34:02.043Z,12.50
2023-01-08T17:39:16.800Z,12.40
2023-01-08T17:44:22.285Z,12.50
2023-01-08T17:49:26.667Z,12.60
2023-01-08T17:54:31.265Z,12.70
2023-01-08T17:59:42.216Z,12.60
2023-01-08T18:04:46.220Z,12.60
2023-01-08T18:09:52.930Z,12.50
2023-01-08T18:14:59.081Z,12.60
2023-01-08T18:20:03.985Z,12.60
2023-01-08T18:25:08.061Z,12.70
2023-01-08T18:30:14.623Z,12.50
2023-01-08T18:35:20.956Z,12.50
2023-01-08T18:40:29.165Z,12.50
2023-01-08T18:45:39.667Z,12.60
2023-01-08T18:50:44.050Z,12.60
2023-01-08T18:55:51.348Z,12.70
2023-01-08T19:00:56.877Z,12.70
2023-01-08T19:06:06.634Z,12.80
2023-01-08T19:11:12.282Z,12.80
2023-01-08T19:16:18.448Z,12.80
2023-01-08T19:21:31.357Z,12.80
2023-01-08T19:26:35.348Z,12.90
2023-01-08T19:31:39.657Z,12.90
2023-01-08T19:36:43.842Z,12.90
2023-01-08T19:42:04.514Z,12.90
2023-01-08T19:47:12.534Z,12.90
2023-01-08T19:52:15.764Z,13.00
2023-01-08T19:57:18.763Z,13.00
2023-01-08T20:02:26.288Z,13.00
2023-01-08T20:07:29.239Z,12.90
2023-01-08T20:12:32.377Z,12.90
2023-01-08T20:17:36.688Z,12.90
2023-01-08T20:22:39.652Z,12.70
2023-01-08T20:27:44.647Z,12.70
2023-01-08T20:37:54.509Z,12.60
2023-01-08T20:42:57.399Z,12.60
2023-01-08T20:48:09.895Z,12.50
2023-01-08T20:53:12.735Z,12.50
2023-01-08T20:58:15.771Z,12.40
2023-01-08T21:03:20.417Z,12.30
2023-01-08T21:08:23.295Z,12.40
2023-01-08T21:13:26.177Z,12.30
2023-01-08T21:18:30.639Z,12.40
2023-01-08T21:23:34.897Z,12.30
2023-01-08T21:28:38.358Z,12.30
2023-01-08T21:33:42.585Z,12.40
2023-01-08T21:38:45.678Z,12.50
2023-01-08T21:44:11.257Z,12.40
2023-01-08T21:49:15.523Z,12.40
2023-01-08T21:54:18.385Z,12.50
2023-01-08T21:59:21.296Z,12.40
2023-01-08T22:04:25.615Z,12.40
2023-01-08T22:09:28.564Z,12.30
2023-01-08T22:14:31.417Z,12.20
2023-01-08T22:19:35.843Z,12.10
2023-01-08T22:24:39.304Z,12.10
2023-01-08T22:29:42.163Z,11.90
2023-01-08T22:34:46.475Z,12.00
2023-01-08T22:39:49.799Z,12.10
2023-01-08T22:44:52.642Z,11.90
2023-01-08T22:49:56.842Z,11.90
2023-01-08T22:54:59.711Z,11.90
2023-01-08T23:00:02.658Z,11.90
2023-01-08T23:05:07.535Z,11.90
2023-01-08T23:10:11.863Z,11.80
2023-01-08T23:15:14.754Z,11.80
2023-01-08T23:20:19.768Z,11.70
2023-01-08T23:25:22.699Z,11.70
2023-01-08T23:30:31.197Z,11.80
2023-01-08T23:35:35.591Z,11.70
2023-01-08T23:40:42.645Z,11.80
2023-01-08T23:45:45.605Z,11.80
2023-01-08T23:50:49.800Z,11.80
2023-01-08T23:55:52.690Z,11.80
